createdAt,value
2023-11-23T00:00:12.605Z,2.73
2023-11-23T00:02:41.408Z,2.53
2023-11-23T00:05:11.450Z,2.63
2023-11-23T00:07:39.830Z,2.41
2023-11-23T00:10:07.826Z,2.16
2023-11-23T00:12:34.698Z,1.98
2023-11-23T00:15:01.862Z,1.89
2023-11-23T00:17:31.829Z,1.75
2023-11-23T00:19:59.583Z,1.69
2023-11-23T00:22:27.642Z,2.01
2023-11-23T00:24:57.821Z,2.36
2023-11-23T00:27:24.723Z,2.47
2023-11-23T00:29:52.844Z,2.53
2023-11-23T00:32:20.786Z,2.48
2023-11-23T00:34:47.757Z,2.33
2023-11-23T00:37:14.609Z,2.30
2023-11-23T00:39:41.373Z,2.36
2023-11-23T00:42:08.160Z,2.16
2023-11-23T00:44:34.899Z,2.20
2023-11-23T00:47:01.891Z,2.26
2023-11-23T00:49:28.763Z,2.45
2023-11-23T00:51:55.722Z,2.21
2023-11-23T00:56:54.373Z,1.89
2023-11-23T00:59:21.272Z,1.86
2023-11-23T01:01:48.096Z,1.92
2023-11-23T01:04:14.880Z,1.93
2023-11-23T01:06:43.440Z,1.77
2023-11-23T01:09:11.029Z,1.79
2023-11-23T01:11:37.961Z,1.94
2023-11-23T01:14:04.812Z,1.99
2023-11-23T01:16:31.842Z,1.85
2023-11-23T01:18:58.798Z,2.00
2023-11-23T01:21:25.720Z,1.82
2023-11-23T01:23:52.420Z,1.81
2023-11-23T01:26:19.174Z,1.95
2023-11-23T01:28:45.841Z,1.79
2023-11-23T01:31:12.622Z,1.74
2023-11-23T01:33:39.411Z,1.68
2023-11-23T01:36:06.505Z,1.77
2023-11-23T01:38:33.501Z,1.84
2023-11-23T01:41:00.228Z,1.81
2023-11-23T01:43:27.081Z,1.98
2023-11-23T01:45:53.882Z,2.03
2023-11-23T01:48:21.592Z,1.81
2023-11-23T01:50:51.724Z,1.92
2023-11-23T01:56:01.729Z,2.13
2023-11-23T01:58:29.859Z,2.06
2023-11-23T02:00:56.753Z,2.08
2023-11-23T02:16:30.988Z,1.76
2023-11-23T02:19:05.416Z,1.98
2023-11-23T02:21:38.193Z,2.17
2023-11-23T02:24:12.912Z,2.20
2023-11-23T02:26:45.812Z,2.32
2023-11-23T02:29:18.582Z,2.27
2023-11-23T02:31:51.471Z,2.25
2023-11-23T02:34:24.258Z,2.33
2023-11-23T02:36:57.046Z,2.34
2023-11-23T02:42:01.945Z,2.32
2023-11-23T02:44:28.733Z,2.25
2023-11-23T02:46:55.426Z,2.38
2023-11-23T02:49:22.228Z,2.28
2023-11-23T02:51:49.114Z,2.12
2023-11-23T02:54:15.877Z,2.08
2023-11-23T02:56:42.623Z,2.25
2023-11-23T02:59:09.367Z,2.24
2023-11-23T03:01:36.254Z,2.26
2023-11-23T03:04:05.920Z,2.22
2023-11-23T03:06:32.971Z,2.05
2023-11-23T03:14:05.433Z,1.76
2023-11-23T03:16:32.148Z,1.76
2023-11-23T03:18:59.974Z,1.71
2023-11-23T03:21:26.879Z,1.55
2023-11-23T03:23:54.513Z,1.68
2023-11-23T03:28:54.370Z,2.02
2023-11-23T03:31:22.207Z,2.15
2023-11-23T03:38:58.952Z,2.33
2023-11-23T03:41:25.700Z,2.08
2023-11-23T03:43:52.397Z,2.09
2023-11-23T03:46:19.122Z,2.24
2023-11-23T03:48:45.853Z,2.41
2023-11-23T03:51:13.964Z,2.27
2023-11-23T03:53:40.724Z,2.26
2023-11-23T03:56:07.774Z,2.27
2023-11-23T03:58:34.529Z,2.34
2023-11-23T04:01:01.449Z,2.39
2023-11-23T04:03:28.340Z,2.47
2023-11-23T04:05:55.458Z,2.51
2023-11-23T04:08:24.205Z,2.47
2023-11-23T04:10:50.958Z,2.45
2023-11-23T04:13:17.739Z,2.43
2023-11-23T04:15:44.482Z,2.48
2023-11-23T04:18:11.253Z,2.52
2023-11-23T04:20:38.113Z,2.50
2023-11-23T04:23:04.829Z,2.50
2023-11-23T04:25:31.639Z,2.30
2023-11-23T04:30:30.702Z,2.29
2023-11-23T04:32:59.379Z,2.33
2023-11-23T04:35:26.703Z,2.35
2023-11-23T04:37:53.336Z,2.35
2023-11-23T04:40:20.245Z,2.40
2023-11-23T04:42:46.917Z,2.33
2023-11-23T04:45:13.689Z,2.27
2023-11-23T04:47:40.459Z,2.28
2023-11-23T04:50:07.496Z,2.40
2023-11-23T04:52:34.240Z,2.43
2023-11-23T04:55:00.958Z,2.52
2023-11-23T04:57:27.826Z,2.37
2023-11-23T04:59:54.607Z,2.38
2023-11-23T05:02:21.470Z,2.46
2023-11-23T05:07:21.700Z,2.20
2023-11-23T05:09:48.433Z,2.26
2023-11-23T05:12:15.203Z,2.36
2023-11-23T05:14:42.035Z,2.38
2023-11-23T05:17:08.827Z,2.39
2023-11-23T05:19:42.616Z,2.50
2023-11-23T05:22:10.097Z,2.55
2023-11-23T05:24:36.909Z,2.54
2023-11-23T05:27:03.902Z,2.54
2023-11-23T05:29:30.883Z,2.64
2023-11-23T05:31:57.635Z,2.54
2023-11-23T05:34:24.418Z,2.64
2023-11-23T05:36:51.201Z,2.52
2023-11-23T05:39:19.056Z,2.47
2023-11-23T05:41:46.079Z,2.63
2023-11-23T05:44:13.029Z,2.59
2023-11-23T05:46:40.382Z,2.48
2023-11-23T05:51:41.125Z,2.42
2023-11-23T05:54:07.908Z,2.42
2023-11-23T05:56:35.149Z,2.51
2023-11-23T05:59:01.924Z,2.36
2023-11-23T06:01:28.657Z,2.34
2023-11-23T06:03:55.474Z,2.28
2023-11-23T06:06:24.253Z,2.34
2023-11-23T06:08:51.743Z,2.26
2023-11-23T06:11:18.576Z,2.17
2023-11-23T06:13:47.238Z,2.28
2023-11-23T06:18:47.131Z,2.32
2023-11-23T06:21:14.052Z,2.34
2023-11-23T06:26:12.020Z,2.26
2023-11-23T06:28:39.512Z,2.34
2023-11-23T06:31:07.265Z,2.30
2023-11-23T06:33:34.559Z,2.33
2023-11-23T06:36:01.432Z,2.37
2023-11-23T06:38:29.922Z,2.37
2023-11-23T06:43:29.485Z,2.45
2023-11-23T06:45:56.679Z,2.37
2023-11-23T06:48:23.463Z,2.45
2023-11-23T06:50:50.243Z,2.45
2023-11-23T06:53:16.949Z,2.48
2023-11-23T06:55:44.345Z,2.54
2023-11-23T06:58:11.839Z,2.48
2023-11-23T07:00:40.001Z,2.41
2023-11-23T07:05:38.598Z,2.43
2023-11-23T07:08:06.301Z,2.24
2023-11-23T07:10:35.758Z,2.38
2023-11-23T07:13:02.814Z,2.43
2023-11-23T07:15:31.288Z,2.40
2023-11-23T07:18:01.132Z,2.38
2023-11-23T07:20:28.076Z,2.26
2023-11-23T07:22:55.065Z,2.09
2023-11-23T07:25:21.784Z,2.15
2023-11-23T07:27:48.504Z,3.17
2023-11-23T07:30:15.737Z,2.61
2023-11-23T07:32:42.617Z,2.35
2023-11-23T07:35:09.753Z,2.45
2023-11-23T07:37:36.761Z,2.47
2023-11-23T07:40:15.046Z,2.41
2023-11-23T07:42:44.424Z,2.47
2023-11-23T07:45:12.121Z,2.39
2023-11-23T07:50:17.366Z,2.48
2023-11-23T07:52:45.375Z,2.45
2023-11-23T07:55:14.028Z,2.49
2023-11-23T07:57:40.810Z,2.40
2023-11-23T08:00:09.695Z,2.54
2023-11-23T08:02:36.941Z,2.63
2023-11-23T08:07:37.528Z,2.72
2023-11-23T08:10:13.966Z,2.63
2023-11-23T08:12:40.796Z,2.67
2023-11-23T08:15:08.643Z,2.73
2023-11-23T08:17:35.332Z,2.92
2023-11-23T08:20:02.148Z,3.04
2023-11-23T08:22:28.961Z,3.27
2023-11-23T08:24:55.639Z,3.49
2023-11-23T08:27:24.101Z,3.64
2023-11-23T08:29:51.015Z,3.73
2023-11-23T08:32:17.805Z,3.83
2023-11-23T08:34:45.193Z,3.79
2023-11-23T08:37:12.062Z,3.79
2023-11-23T08:39:38.994Z,3.68
2023-11-23T08:42:06.349Z,3.89
2023-11-23T08:44:33.274Z,4.02
2023-11-23T08:47:01.785Z,4.03
2023-11-23T08:49:28.644Z,3.99
2023-11-23T08:51:55.358Z,4.06
2023-11-23T08:54:22.995Z,4.03
2023-11-23T08:56:49.807Z,4.17
2023-11-23T08:59:16.566Z,4.14
2023-11-23T09:01:46.624Z,4.07
2023-11-23T09:04:14.934Z,4.12
2023-11-23T09:06:41.986Z,4.17
2023-11-23T09:09:09.488Z,4.16
2023-11-23T09:11:36.239Z,4.24
2023-11-23T09:14:04.008Z,4.29
2023-11-23T09:16:31.250Z,4.28
2023-11-23T09:18:58.092Z,4.34
2023-11-23T09:21:25.567Z,4.45
2023-11-23T09:23:55.233Z,4.43
2023-11-23T09:26:22.064Z,4.40
2023-11-23T09:28:49.180Z,4.51
2023-11-23T09:31:16.409Z,4.49
2023-11-23T09:33:43.366Z,4.53
2023-11-23T09:36:13.082Z,4.71
2023-11-23T09:38:39.782Z,4.80
2023-11-23T09:41:12.023Z,4.82
2023-11-23T09:43:38.697Z,4.83
2023-11-23T09:46:06.026Z,4.92
2023-11-23T09:48:35.449Z,4.95
2023-11-23T09:51:02.584Z,4.93
2023-11-23T09:53:30.373Z,4.93
2023-11-23T09:55:57.900Z,4.97
2023-11-23T09:58:25.180Z,5.06
2023-11-23T10:00:52.448Z,5.16
2023-11-23T10:03:24.477Z,5.24
2023-11-23T10:05:52.483Z,5.21
2023-11-23T10:08:19.839Z,5.28
2023-11-23T10:10:46.592Z,5.36
2023-11-23T10:13:13.372Z,5.36
2023-11-23T10:15:40.111Z,5.39
2023-11-23T10:18:08.608Z,5.46
2023-11-23T10:20:39.399Z,5.47
2023-11-23T10:23:09.209Z,5.48
2023-11-23T10:25:37.207Z,5.54
2023-11-23T10:28:07.421Z,5.56
2023-11-23T10:30:35.862Z,5.65
2023-11-23T10:33:02.713Z,5.58
2023-11-23T10:35:42.661Z,5.58
2023-11-23T10:38:09.775Z,5.57
2023-11-23T10:40:37.135Z,5.61
2023-11-23T10:43:04.602Z,5.68
2023-11-23T10:45:37.098Z,5.76
2023-11-23T10:50:39.226Z,5.88
2023-11-23T10:53:07.057Z,5.97
2023-11-23T10:58:17.609Z,5.93
2023-11-23T11:00:45.928Z,5.96
2023-11-23T11:08:31.397Z,6.19
2023-11-23T11:10:59.132Z,6.22
2023-11-23T11:13:27.116Z,6.18
2023-11-23T11:15:58.366Z,6.26
2023-11-23T11:18:27.381Z,6.32
2023-11-23T11:21:14.272Z,6.31
2023-11-23T11:23:41.945Z,6.29
2023-11-23T11:26:14.130Z,6.29
2023-11-23T11:28:41.609Z,6.30
2023-11-23T11:31:11.406Z,6.37
2023-11-23T11:33:39.258Z,6.41
2023-11-23T11:36:08.956Z,6.47
2023-11-23T11:38:40.837Z,6.47
2023-11-23T11:41:11.259Z,6.55
2023-11-23T11:43:38.220Z,6.53
2023-11-23T11:46:06.649Z,6.53
2023-11-23T11:48:33.632Z,6.57
2023-11-23T11:51:01.012Z,6.62
2023-11-23T11:53:28.090Z,6.68
2023-11-23T11:55:55.744Z,6.76
2023-11-23T11:58:22.557Z,6.85
2023-11-23T12:00:50.048Z,6.88
2023-11-23T12:03:17.731Z,6.94
2023-11-23T12:05:44.519Z,6.95
2023-11-23T12:08:11.260Z,7.00
2023-11-23T12:10:41.678Z,6.97
2023-11-23T12:13:16.229Z,7.04
2023-11-23T12:15:45.684Z,7.04
2023-11-23T12:18:14.643Z,7.01
2023-11-23T12:20:42.846Z,7.02
2023-11-23T12:23:10.104Z,6.99
2023-11-23T12:25:36.980Z,7.04
2023-11-23T12:28:04.099Z,7.11
2023-11-23T12:30:31.296Z,7.08
2023-11-23T12:33:01.805Z,7.12
2023-11-23T12:35:29.275Z,7.16
2023-11-23T12:37:57.110Z,7.21
2023-11-23T12:40:23.835Z,7.23
2023-11-23T12:42:51.466Z,7.25
2023-11-23T12:45:18.267Z,7.30
2023-11-23T12:47:45.229Z,7.40
2023-11-23T12:50:12.580Z,7.41
2023-11-23T12:52:42.672Z,7.43
2023-11-23T12:57:44.504Z,7.37
2023-11-23T13:00:15.168Z,7.27
2023-11-23T13:02:42.861Z,7.31
2023-11-23T13:05:13.910Z,7.32
2023-11-23T13:07:40.974Z,7.42
2023-11-23T13:10:10.714Z,7.41
2023-11-23T13:12:38.139Z,7.49
2023-11-23T13:15:13.520Z,7.45
2023-11-23T13:17:41.725Z,7.51
2023-11-23T13:20:12.043Z,7.56
2023-11-23T13:22:38.820Z,7.51
2023-11-23T13:27:41.948Z,7.43
2023-11-23T13:30:10.277Z,7.43
2023-11-23T13:32:39.893Z,7.47
2023-11-23T13:35:08.492Z,7.59
2023-11-23T13:37:35.357Z,7.50
2023-11-23T13:40:05.415Z,7.51
2023-11-23T13:42:32.154Z,7.57
2023-11-23T13:44:58.910Z,7.59
2023-11-23T13:47:26.514Z,7.56
2023-11-23T13:49:53.267Z,7.57
2023-11-23T13:52:20.295Z,7.62
2023-11-23T13:54:48.936Z,7.65
2023-11-23T13:57:16.121Z,7.67
2023-11-23T13:59:42.889Z,7.69
2023-11-23T14:02:09.798Z,7.75
2023-11-23T14:04:36.924Z,7.80
2023-11-23T14:07:03.676Z,7.84
2023-11-23T14:09:32.207Z,7.82
2023-11-23T14:11:59.065Z,7.76
2023-11-23T14:14:25.757Z,7.74
2023-11-23T14:16:52.554Z,7.77
2023-11-23T14:19:21.278Z,7.83
2023-11-23T14:21:48.793Z,7.85
2023-11-23T14:24:17.008Z,7.85
2023-11-23T14:26:44.063Z,7.89
2023-11-23T14:29:12.656Z,7.88
2023-11-23T14:31:39.536Z,7.85
2023-11-23T14:34:07.326Z,7.96
2023-11-23T14:36:34.315Z,7.87
2023-11-23T14:39:02.027Z,7.83
2023-11-23T14:41:28.939Z,7.73
2023-11-23T14:43:55.860Z,7.65
2023-11-23T14:46:22.846Z,7.62
2023-11-23T14:48:49.990Z,7.68
2023-11-23T14:51:17.240Z,7.72
2023-11-23T14:53:44.684Z,7.71
2023-11-23T14:56:11.521Z,7.69
2023-11-23T14:58:38.582Z,7.71
2023-11-23T15:01:05.542Z,7.75
2023-11-23T15:03:32.424Z,7.66
2023-11-23T15:05:59.246Z,7.71
2023-11-23T15:08:25.969Z,7.68
2023-11-23T15:13:32.338Z,7.66
2023-11-23T15:16:03.028Z,7.69
2023-11-23T15:18:32.148Z,7.61
2023-11-23T15:21:00.752Z,7.65
2023-11-23T15:23:27.541Z,7.57
2023-11-23T15:25:55.636Z,7.58
2023-11-23T15:28:23.094Z,7.55
2023-11-23T15:30:50.125Z,7.61
2023-11-23T15:33:17.987Z,7.63
2023-11-23T15:38:22.954Z,7.63
2023-11-23T15:40:50.293Z,7.58
2023-11-23T15:43:17.558Z,7.54
2023-11-23T15:45:44.740Z,7.53
2023-11-23T15:48:12.590Z,7.53
2023-11-23T15:50:41.902Z,7.47
2023-11-23T15:53:08.678Z,7.47
2023-11-23T15:55:37.714Z,7.53
2023-11-23T15:58:04.780Z,7.53
2023-11-23T16:00:33.221Z,7.44
2023-11-23T16:03:00.922Z,7.46
2023-11-23T16:05:29.126Z,7.47
2023-11-23T16:07:56.694Z,7.47
2023-11-23T16:10:23.573Z,7.52
2023-11-23T16:12:50.449Z,7.48
2023-11-23T16:15:18.053Z,7.42
2023-11-23T16:17:45.635Z,7.35
2023-11-23T16:20:16.682Z,7.34
2023-11-23T16:25:19.127Z,7.39
2023-11-23T16:27:46.365Z,7.40
2023-11-23T16:30:15.453Z,7.39
2023-11-23T16:32:43.650Z,7.42
2023-11-23T16:35:13.285Z,7.41
2023-11-23T16:37:40.243Z,7.46
2023-11-23T16:40:11.762Z,7.42
2023-11-23T16:42:40.862Z,7.42
2023-11-23T16:45:08.569Z,7.48
2023-11-23T16:47:36.325Z,7.43
2023-11-23T16:50:03.369Z,7.45
2023-11-23T16:52:30.160Z,7.38
2023-11-23T16:54:57.358Z,7.44
2023-11-23T16:57:24.160Z,7.47
2023-11-23T16:59:50.881Z,7.43
2023-11-23T17:02:18.053Z,7.43
2023-11-23T17:04:49.233Z,7.47
2023-11-23T17:07:18.251Z,7.50
2023-11-23T17:09:47.459Z,7.49
2023-11-23T17:12:14.195Z,7.50
2023-11-23T17:14:40.971Z,7.56
2023-11-23T17:17:08.185Z,7.55
2023-11-23T17:19:34.950Z,7.49
2023-11-23T17:22:01.970Z,7.49
2023-11-23T17:24:28.914Z,7.52
2023-11-23T17:26:55.856Z,7.57
2023-11-23T17:29:22.637Z,7.57
2023-11-23T17:31:55.477Z,7.59
2023-11-23T17:34:23.537Z,7.58
2023-11-23T17:36:50.352Z,7.62
2023-11-23T17:39:17.349Z,7.62
2023-11-23T17:41:45.964Z,7.59
2023-11-23T17:44:14.161Z,7.61
2023-11-23T17:46:41.020Z,7.57
2023-11-23T17:49:07.938Z,7.55
2023-11-23T17:51:34.776Z,7.66
2023-11-23T17:54:01.989Z,7.61
2023-11-23T17:56:28.728Z,7.62
2023-11-23T17:59:08.499Z,7.63
2023-11-23T18:01:42.199Z,7.62
2023-11-23T18:04:09.027Z,7.65
2023-11-23T18:06:36.017Z,7.72
2023-11-23T18:09:02.866Z,7.72
2023-11-23T18:11:29.589Z,7.68
2023-11-23T18:13:56.365Z,7.64
2023-11-23T18:16:23.405Z,7.62
2023-11-23T18:18:50.159Z,7.65
2023-11-23T18:21:17.004Z,7.65
2023-11-23T18:23:44.076Z,7.65
2023-11-23T18:26:11.332Z,7.64
2023-11-23T18:28:38.182Z,7.64
2023-11-23T18:31:05.553Z,7.65
2023-11-23T18:33:36.083Z,7.72
2023-11-23T18:36:03.933Z,7.72
2023-11-23T18:38:31.123Z,7.77
2023-11-23T18:40:57.852Z,7.72
2023-11-23T18:43:24.591Z,7.78
2023-11-23T18:45:51.411Z,7.80
2023-11-23T18:48:18.839Z,7.80
2023-11-23T18:50:45.829Z,7.79
2023-11-23T18:53:12.734Z,7.78
2023-11-23T18:55:39.496Z,7.79
2023-11-23T18:58:06.577Z,7.78
2023-11-23T19:00:34.104Z,7.79
2023-11-23T19:03:02.664Z,7.83
2023-11-23T19:05:29.453Z,7.91
2023-11-23T19:07:56.231Z,7.92
2023-11-23T19:13:06.296Z,8.09
2023-11-23T19:18:14.651Z,7.86
2023-11-23T19:20:41.883Z,7.87
2023-11-23T19:23:08.870Z,7.84
2023-11-23T19:25:36.021Z,7.80
2023-11-23T19:28:03.045Z,7.81
2023-11-23T19:33:06.430Z,7.74
2023-11-23T19:35:33.446Z,7.75
2023-11-23T19:38:00.425Z,7.73
2023-11-23T19:40:27.299Z,7.83
2023-11-23T19:42:55.266Z,7.72
2023-11-23T19:45:22.548Z,7.74
2023-11-23T19:47:49.695Z,7.67
2023-11-23T19:52:52.780Z,7.69
2023-11-23T19:55:19.507Z,7.67
2023-11-23T19:57:46.258Z,7.69
2023-11-23T20:00:15.342Z,7.76
2023-11-23T20:02:42.484Z,7.76
2023-11-23T20:05:09.827Z,7.81
2023-11-23T20:07:36.788Z,7.81
2023-11-23T20:10:03.962Z,7.76
2023-11-23T20:12:30.786Z,7.80
2023-11-23T20:14:57.575Z,7.85
2023-11-23T20:17:26.242Z,7.89
2023-11-23T20:19:53.143Z,7.88
2023-11-23T20:24:58.266Z,7.89
2023-11-23T20:27:25.107Z,7.90
2023-11-23T20:29:51.915Z,7.92
2023-11-23T20:32:18.642Z,7.96
2023-11-23T20:34:45.952Z,7.92
2023-11-23T20:37:12.968Z,7.92
2023-11-23T20:39:40.138Z,7.89
2023-11-23T20:42:07.322Z,7.88
2023-11-23T20:44:34.823Z,7.91
2023-11-23T20:47:01.508Z,7.93
2023-11-23T20:51:59.863Z,7.86
2023-11-23T20:54:26.683Z,7.86
2023-11-23T20:56:57.674Z,7.90
2023-11-23T20:59:25.714Z,7.88
2023-11-23T21:01:53.382Z,7.86
2023-11-23T21:04:26.135Z,7.89
2023-11-23T21:07:01.696Z,7.88
2023-11-23T21:09:29.939Z,7.91
2023-11-23T21:11:57.122Z,8.01
2023-11-23T21:14:24.929Z,8.04
2023-11-23T21:16:51.706Z,8.13
2023-11-23T21:19:18.837Z,8.16
2023-11-23T21:21:45.865Z,8.20
2023-11-23T21:24:14.487Z,8.24
2023-11-23T21:26:42.266Z,8.27
2023-11-23T21:29:10.879Z,8.26
2023-11-23T21:31:38.016Z,8.33
2023-11-23T21:34:05.237Z,8.27
2023-11-23T21:36:32.234Z,8.30
2023-11-23T21:41:30.479Z,8.37
2023-11-23T21:43:57.311Z,8.38
2023-11-23T21:46:25.936Z,8.42
2023-11-23T21:48:53.841Z,8.47
2023-11-23T21:51:29.868Z,8.43
2023-11-23T21:53:59.738Z,8.46
2023-11-23T21:56:26.547Z,8.50
2023-11-23T22:01:25.004Z,8.59
2023-11-23T22:03:52.064Z,8.59
2023-11-23T22:06:19.220Z,8.58
2023-11-23T22:08:45.986Z,8.60
2023-11-23T22:11:14.099Z,8.58
2023-11-23T22:13:41.579Z,8.59
2023-11-23T22:16:08.322Z,8.51
2023-11-23T22:18:36.283Z,8.51
2023-11-23T22:23:38.680Z,8.59
2023-11-23T22:26:05.923Z,8.62
2023-11-23T22:28:33.077Z,8.60
2023-11-23T22:31:01.647Z,8.56
2023-11-23T22:33:28.751Z,8.62
2023-11-23T22:35:55.661Z,8.66
2023-11-23T22:38:24.132Z,8.70
2023-11-23T22:40:51.075Z,8.64
2023-11-23T22:43:18.042Z,8.62
2023-11-23T22:45:44.992Z,8.59
2023-11-23T22:48:11.701Z,8.62
2023-11-23T22:50:40.242Z,8.60
2023-11-23T22:53:07.096Z,8.57
2023-11-23T22:55:33.818Z,8.58
2023-11-23T22:58:00.565Z,8.51
2023-11-23T23:00:29.468Z,8.53
2023-11-23T23:02:56.456Z,8.55
2023-11-23T23:05:26.529Z,8.56
2023-11-23T23:07:58.127Z,8.59
2023-11-23T23:10:26.320Z,8.58
2023-11-23T23:12:56.716Z,8.55
2023-11-23T23:15:24.350Z,8.66
2023-11-23T23:17:53.033Z,8.60
2023-11-23T23:20:20.106Z,8.54
2023-11-23T23:22:46.877Z,8.51
2023-11-23T23:25:14.289Z,8.46
2023-11-23T23:27:41.785Z,8.42
2023-11-23T23:30:10.454Z,8.39
2023-11-23T23:32:38.364Z,8.39
2023-11-23T23:35:11.278Z,8.33
2023-11-23T23:37:39.276Z,8.29
2023-11-23T23:40:10.813Z,8.18
2023-11-23T23:42:38.234Z,8.15
2023-11-23T23:45:06.184Z,8.08
2023-11-23T23:47:32.923Z,8.12
2023-11-23T23:49:59.695Z,8.05
2023-11-23T23:52:26.394Z,7.83
2023-11-23T23:57:24.479Z,7.89
2023-11-23T23:59:51.260Z,7.76
